sensor_id;sensor_type;location;lat;lon;timestamp;P1;durP1;ratioP1;P2;durP2;ratioP2
59756;SDS011;45631;51.962;5.974;2024-02-16T00:02:06;5.38;;;2.40;;
59756;SDS011;45631;51.962;5.974;2024-02-16T00:04:37;8.38;;;2.97;;
59756;SDS011;45631;51.962;5.974;2024-02-16T00:07:05;6.63;;;2.70;;
59756;SDS011;45631;51.962;5.974;2024-02-16T00:09:33;5.13;;;2.50;;
59756;SDS011;45631;51.962;5.974;2024-02-16T00:12:03;5.68;;;2.17;;
59756;SDS011;45631;51.962;5.974;2024-02-16T00:14:31;6.35;;;2.38;;
59756;SDS011;45631;51.962;5.974;2024-02-16T00:17:00;7.95;;;2.85;;
59756;SDS011;45631;51.962;5.974;2024-02-16T00:19:31;8.15;;;2.53;;
59756;SDS011;45631;51.962;5.974;2024-02-16T00:21:59;6.28;;;2.40;;
59756;SDS011;45631;51.962;5.974;2024-02-16T00:24:27;7.28;;;2.63;;
59756;SDS011;45631;51.962;5.974;2024-02-16T00:27:00;8.45;;;2.65;;
59756;SDS011;45631;51.962;5.974;2024-02-16T00:29:30;9.27;;;2.92;;
59756;SDS011;45631;51.962;5.974;2024-02-16T00:31:58;4.88;;;2.53;;
59756;SDS011;45631;51.962;5.974;2024-02-16T00:34:26;5.32;;;2.80;;
59756;SDS011;45631;51.962;5.974;2024-02-16T00:36:55;7.50;;;3.20;;
59756;SDS011;45631;51.962;5.974;2024-02-16T00:39:23;6.88;;;2.78;;
59756;SDS011;45631;51.962;5.974;2024-02-16T00:41:51;6.85;;;2.50;;
59756;SDS011;45631;51.962;5.974;2024-02-16T00:44:19;7.80;;;3.10;;
59756;SDS011;45631;51.962;5.974;2024-02-16T00:46:50;6.57;;;2.50;;
59756;SDS011;45631;51.962;5.974;2024-02-16T00:49:18;8.07;;;2.80;;
59756;SDS011;45631;51.962;5.974;2024-02-16T00:51:46;6.88;;;2.58;;
59756;SDS011;45631;51.962;5.974;2024-02-16T00:54:14;6.22;;;2.20;;
59756;SDS011;45631;51.962;5.974;2024-02-16T00:56:43;5.72;;;2.58;;
59756;SDS011;45631;51.962;5.974;2024-02-16T00:59:11;7.50;;;3.30;;
59756;SDS011;45631;51.962;5.974;2024-02-16T01:01:39;9.85;;;2.75;;
59756;SDS011;45631;51.962;5.974;2024-02-16T01:04:08;8.43;;;2.70;;
59756;SDS011;45631;51.962;5.974;2024-02-16T01:06:36;6.63;;;2.47;;
59756;SDS011;45631;51.962;5.974;2024-02-16T01:09:05;5.07;;;2.28;;
59756;SDS011;45631;51.962;5.974;2024-02-16T01:11:33;5.47;;;2.50;;
59756;SDS011;45631;51.962;5.974;2024-02-16T01:14:01;6.45;;;2.67;;
59756;SDS011;45631;51.962;5.974;2024-02-16T01:16:29;8.10;;;2.65;;
59756;SDS011;45631;51.962;5.974;2024-02-16T01:18:57;7.03;;;2.70;;
59756;SDS011;45631;51.962;5.974;2024-02-16T01:21:27;9.45;;;2.50;;
59756;SDS011;45631;51.962;5.974;2024-02-16T01:23:55;6.88;;;2.70;;
59756;SDS011;45631;51.962;5.974;2024-02-16T01:26:26;6.97;;;2.83;;
59756;SDS011;45631;51.962;5.974;2024-02-16T01:28:54;5.38;;;2.60;;
59756;SDS011;45631;51.962;5.974;2024-02-16T01:31:24;6.63;;;2.65;;
59756;SDS011;45631;51.962;5.974;2024-02-16T01:33:52;7.00;;;2.80;;
59756;SDS011;45631;51.962;5.974;2024-02-16T01:36:21;6.97;;;2.83;;
59756;SDS011;45631;51.962;5.974;2024-02-16T01:38:50;8.38;;;2.75;;
59756;SDS011;45631;51.962;5.974;2024-02-16T01:41:18;7.18;;;2.63;;
59756;SDS011;45631;51.962;5.974;2024-02-16T01:43:47;6.32;;;2.60;;
59756;SDS011;45631;51.962;5.974;2024-02-16T01:46:15;8.00;;;2.60;;
59756;SDS011;45631;51.962;5.974;2024-02-16T01:48:43;9.68;;;2.95;;
59756;SDS011;45631;51.962;5.974;2024-02-16T01:51:11;7.68;;;3.40;;
59756;SDS011;45631;51.962;5.974;2024-02-16T01:53:40;4.43;;;2.30;;
59756;SDS011;45631;51.962;5.974;2024-02-16T01:56:10;6.63;;;2.85;;
59756;SDS011;45631;51.962;5.974;2024-02-16T01:58:38;6.72;;;2.50;;
59756;SDS011;45631;51.962;5.974;2024-02-16T02:01:07;7.93;;;2.75;;
59756;SDS011;45631;51.962;5.974;2024-02-16T02:03:35;6.57;;;2.90;;
59756;SDS011;45631;51.962;5.974;2024-02-16T02:06:03;6.30;;;2.72;;
59756;SDS011;45631;51.962;5.974;2024-02-16T02:08:32;6.25;;;2.50;;
59756;SDS011;45631;51.962;5.974;2024-02-16T02:11:00;5.90;;;2.78;;
59756;SDS011;45631;51.962;5.974;2024-02-16T02:13:30;7.10;;;2.67;;
59756;SDS011;45631;51.962;5.974;2024-02-16T02:15:58;7.30;;;2.92;;
59756;SDS011;45631;51.962;5.974;2024-02-16T02:18:28;7.20;;;2.58;;
59756;SDS011;45631;51.962;5.974;2024-02-16T02:20:56;7.85;;;2.70;;
59756;SDS011;45631;51.962;5.974;2024-02-16T02:23:26;7.10;;;3.00;;
59756;SDS011;45631;51.962;5.974;2024-02-16T02:25:55;9.25;;;3.08;;
59756;SDS011;45631;51.962;5.974;2024-02-16T02:28:23;8.55;;;2.85;;
59756;SDS011;45631;51.962;5.974;2024-02-16T02:30:51;7.05;;;3.03;;
59756;SDS011;45631;51.962;5.974;2024-02-16T02:33:20;8.45;;;3.28;;
59756;SDS011;45631;51.962;5.974;2024-02-16T02:35:48;8.20;;;3.58;;
59756;SDS011;45631;51.962;5.974;2024-02-16T02:38:16;4.25;;;2.45;;
59756;SDS011;45631;51.962;5.974;2024-02-16T02:40:46;6.00;;;2.70;;
59756;SDS011;45631;51.962;5.974;2024-02-16T02:43:14;7.65;;;2.90;;
59756;SDS011;45631;51.962;5.974;2024-02-16T02:45:42;7.93;;;2.90;;
59756;SDS011;45631;51.962;5.974;2024-02-16T02:48:10;5.93;;;3.00;;
59756;SDS011;45631;51.962;5.974;2024-02-16T02:50:38;7.13;;;3.22;;
59756;SDS011;45631;51.962;5.974;2024-02-16T02:53:07;7.90;;;3.42;;
59756;SDS011;45631;51.962;5.974;2024-02-16T02:55:35;8.18;;;3.75;;
59756;SDS011;45631;51.962;5.974;2024-02-16T02:58:04;7.28;;;3.10;;
59756;SDS011;45631;51.962;5.974;2024-02-16T03:00:33;8.02;;;3.05;;
59756;SDS011;45631;51.962;5.974;2024-02-16T03:03:01;6.82;;;2.85;;
59756;SDS011;45631;51.962;5.974;2024-02-16T03:05:30;5.63;;;3.00;;
59756;SDS011;45631;51.962;5.974;2024-02-16T03:07:58;8.93;;;3.63;;
59756;SDS011;45631;51.962;5.974;2024-02-16T03:10:28;5.82;;;2.88;;
59756;SDS011;45631;51.962;5.974;2024-02-16T03:13:01;7.72;;;2.67;;
59756;SDS011;45631;51.962;5.974;2024-02-16T03:15:30;8.75;;;2.88;;
59756;SDS011;45631;51.962;5.974;2024-02-16T03:17:59;7.22;;;2.60;;
59756;SDS011;45631;51.962;5.974;2024-02-16T03:20:27;6.43;;;2.65;;
59756;SDS011;45631;51.962;5.974;2024-02-16T03:22:56;7.00;;;3.00;;
59756;SDS011;45631;51.962;5.974;2024-02-16T03:25:24;6.72;;;2.92;;
59756;SDS011;45631;51.962;5.974;2024-02-16T03:27:52;7.57;;;2.67;;
59756;SDS011;45631;51.962;5.974;2024-02-16T03:30:20;8.50;;;3.30;;
59756;SDS011;45631;51.962;5.974;2024-02-16T03:32:53;5.45;;;2.33;;
59756;SDS011;45631;51.962;5.974;2024-02-16T03:35:21;8.63;;;3.00;;
59756;SDS011;45631;51.962;5.974;2024-02-16T03:37:49;5.88;;;2.60;;
59756;SDS011;45631;51.962;5.974;2024-02-16T03:40:18;7.55;;;3.00;;
59756;SDS011;45631;51.962;5.974;2024-02-16T03:42:46;7.93;;;3.00;;
59756;SDS011;45631;51.962;5.974;2024-02-16T03:45:14;7.32;;;2.70;;
59756;SDS011;45631;51.962;5.974;2024-02-16T03:47:43;6.68;;;2.83;;
59756;SDS011;45631;51.962;5.974;2024-02-16T03:50:13;6.65;;;2.90;;
59756;SDS011;45631;51.962;5.974;2024-02-16T03:52:41;7.78;;;2.63;;
59756;SDS011;45631;51.962;5.974;2024-02-16T03:55:10;5.57;;;2.58;;
59756;SDS011;45631;51.962;5.974;2024-02-16T03:57:39;7.70;;;2.70;;
59756;SDS011;45631;51.962;5.974;2024-02-16T04:00:08;6.38;;;2.80;;
59756;SDS011;45631;51.962;5.974;2024-02-16T04:02:39;6.85;;;2.60;;
59756;SDS011;45631;51.962;5.974;2024-02-16T04:05:07;7.00;;;2.75;;
59756;SDS011;45631;51.962;5.974;2024-02-16T04:07:37;4.97;;;2.40;;
59756;SDS011;45631;51.962;5.974;2024-02-16T04:10:05;8.00;;;3.50;;
59756;SDS011;45631;51.962;5.974;2024-02-16T04:12:34;8.75;;;2.70;;
59756;SDS011;45631;51.962;5.974;2024-02-16T04:15:03;7.85;;;2.65;;
59756;SDS011;45631;51.962;5.974;2024-02-16T04:17:32;8.15;;;2.78;;
59756;SDS011;45631;51.962;5.974;2024-02-16T04:20:00;8.02;;;3.00;;
59756;SDS011;45631;51.962;5.974;2024-02-16T04:22:29;6.85;;;2.70;;
59756;SDS011;45631;51.962;5.974;2024-02-16T04:25:05;7.00;;;2.70;;
59756;SDS011;45631;51.962;5.974;2024-02-16T04:27:33;5.05;;;2.47;;
59756;SDS011;45631;51.962;5.974;2024-02-16T04:30:01;7.68;;;2.67;;
59756;SDS011;45631;51.962;5.974;2024-02-16T04:32:29;6.55;;;2.55;;
59756;SDS011;45631;51.962;5.974;2024-02-16T04:34:58;7.43;;;2.75;;
59756;SDS011;45631;51.962;5.974;2024-02-16T04:37:26;6.18;;;2.85;;
59756;SDS011;45631;51.962;5.974;2024-02-16T04:39:55;8.95;;;2.70;;
59756;SDS011;45631;51.962;5.974;2024-02-16T04:42:24;7.45;;;3.20;;
59756;SDS011;45631;51.962;5.974;2024-02-16T04:44:53;5.82;;;2.45;;
59756;SDS011;45631;51.962;5.974;2024-02-16T04:47:21;9.05;;;2.70;;
59756;SDS011;45631;51.962;5.974;2024-02-16T04:49:49;5.88;;;2.65;;
59756;SDS011;45631;51.962;5.974;2024-02-16T04:52:17;6.63;;;2.90;;
59756;SDS011;45631;51.962;5.974;2024-02-16T04:54:45;5.40;;;2.60;;
59756;SDS011;45631;51.962;5.974;2024-02-16T04:57:14;8.57;;;2.50;;
59756;SDS011;45631;51.962;5.974;2024-02-16T04:59:43;5.75;;;2.80;;
59756;SDS011;45631;51.962;5.974;2024-02-16T05:02:11;7.45;;;2.78;;
59756;SDS011;45631;51.962;5.974;2024-02-16T05:04:40;6.28;;;2.75;;
59756;SDS011;45631;51.962;5.974;2024-02-16T05:07:08;5.00;;;2.53;;
59756;SDS011;45631;51.962;5.974;2024-02-16T05:09:37;6.45;;;2.78;;
59756;SDS011;45631;51.962;5.974;2024-02-16T05:12:06;6.60;;;2.63;;
59756;SDS011;45631;51.962;5.974;2024-02-16T05:14:36;8.15;;;3.53;;
59756;SDS011;45631;51.962;5.974;2024-02-16T05:17:05;7.68;;;2.90;;
59756;SDS011;45631;51.962;5.974;2024-02-16T05:19:33;5.35;;;2.53;;
59756;SDS011;45631;51.962;5.974;2024-02-16T05:22:03;6.45;;;2.97;;
59756;SDS011;45631;51.962;5.974;2024-02-16T05:24:34;7.00;;;2.75;;
59756;SDS011;45631;51.962;5.974;2024-02-16T05:27:03;6.45;;;2.60;;
59756;SDS011;45631;51.962;5.974;2024-02-16T05:29:31;5.53;;;2.60;;
59756;SDS011;45631;51.962;5.974;2024-02-16T05:31:59;8.02;;;3.13;;
59756;SDS011;45631;51.962;5.974;2024-02-16T05:34:29;7.47;;;2.95;;
59756;SDS011;45631;51.962;5.974;2024-02-16T05:37:04;7.93;;;2.97;;
59756;SDS011;45631;51.962;5.974;2024-02-16T05:39:35;8.35;;;2.78;;
59756;SDS011;45631;51.962;5.974;2024-02-16T05:42:20;9.38;;;3.15;;
59756;SDS011;45631;51.962;5.974;2024-02-16T05:44:49;6.68;;;2.97;;
59756;SDS011;45631;51.962;5.974;2024-02-16T05:47:17;5.75;;;2.80;;
59756;SDS011;45631;51.962;5.974;2024-02-16T05:49:48;5.70;;;2.70;;
59756;SDS011;45631;51.962;5.974;2024-02-16T05:52:17;6.40;;;3.03;;
59756;SDS011;45631;51.962;5.974;2024-02-16T05:54:45;7.43;;;2.78;;
59756;SDS011;45631;51.962;5.974;2024-02-16T05:57:14;6.13;;;3.05;;
59756;SDS011;45631;51.962;5.974;2024-02-16T05:59:45;5.38;;;2.88;;
59756;SDS011;45631;51.962;5.974;2024-02-16T06:02:15;5.78;;;2.60;;
59756;SDS011;45631;51.962;5.974;2024-02-16T06:04:44;7.00;;;2.90;;
59756;SDS011;45631;51.962;5.974;2024-02-16T06:07:13;6.43;;;3.13;;
59756;SDS011;45631;51.962;5.974;2024-02-16T06:09:42;7.78;;;3.28;;
59756;SDS011;45631;51.962;5.974;2024-02-16T06:12:10;6.68;;;2.92;;
59756;SDS011;45631;51.962;5.974;2024-02-16T06:14:39;6.93;;;3.10;;
59756;SDS011;45631;51.962;5.974;2024-02-16T06:17:08;8.48;;;3.05;;
59756;SDS011;45631;51.962;5.974;2024-02-16T06:19:39;8.13;;;3.30;;
59756;SDS011;45631;51.962;5.974;2024-02-16T06:22:08;7.30;;;3.13;;
59756;SDS011;45631;51.962;5.974;2024-02-16T06:24:38;7.68;;;3.08;;
59756;SDS011;45631;51.962;5.974;2024-02-16T06:27:06;8.35;;;3.25;;
59756;SDS011;45631;51.962;5.974;2024-02-16T06:29:35;5.82;;;2.92;;
59756;SDS011;45631;51.962;5.974;2024-02-16T06:32:04;6.75;;;3.05;;
59756;SDS011;45631;51.962;5.974;2024-02-16T06:34:32;7.95;;;3.65;;
59756;SDS011;45631;51.962;5.974;2024-02-16T06:37:01;7.43;;;2.97;;
59756;SDS011;45631;51.962;5.974;2024-02-16T06:39:30;9.00;;;3.03;;
59756;SDS011;45631;51.962;5.974;2024-02-16T06:41:59;8.57;;;3.38;;
59756;SDS011;45631;51.962;5.974;2024-02-16T06:44:27;7.22;;;3.20;;
59756;SDS011;45631;51.962;5.974;2024-02-16T06:46:57;6.65;;;2.92;;
59756;SDS011;45631;51.962;5.974;2024-02-16T06:49:25;9.05;;;3.03;;
59756;SDS011;45631;51.962;5.974;2024-02-16T06:51:53;6.75;;;3.13;;
59756;SDS011;45631;51.962;5.974;2024-02-16T06:54:22;5.72;;;3.10;;
59756;SDS011;45631;51.962;5.974;2024-02-16T06:56:51;8.90;;;3.45;;
59756;SDS011;45631;51.962;5.974;2024-02-16T06:59:21;7.90;;;3.60;;
59756;SDS011;45631;51.962;5.974;2024-02-16T07:01:49;7.93;;;3.17;;
59756;SDS011;45631;51.962;5.974;2024-02-16T07:04:17;8.13;;;3.47;;
59756;SDS011;45631;51.962;5.974;2024-02-16T07:06:45;7.78;;;3.58;;
59756;SDS011;45631;51.962;5.974;2024-02-16T07:09:14;7.13;;;3.53;;
59756;SDS011;45631;51.962;5.974;2024-02-16T07:11:42;8.82;;;3.38;;
59756;SDS011;45631;51.962;5.974;2024-02-16T07:14:16;6.50;;;3.00;;
59756;SDS011;45631;51.962;5.974;2024-02-16T07:16:46;7.53;;;3.08;;
59756;SDS011;45631;51.962;5.974;2024-02-16T07:19:14;7.55;;;3.35;;
59756;SDS011;45631;51.962;5.974;2024-02-16T07:21:47;8.48;;;3.67;;
59756;SDS011;45631;51.962;5.974;2024-02-16T07:24:15;8.75;;;3.88;;
59756;SDS011;45631;51.962;5.974;2024-02-16T07:26:45;9.07;;;3.38;;
59756;SDS011;45631;51.962;5.974;2024-02-16T07:29:13;9.10;;;3.47;;
59756;SDS011;45631;51.962;5.974;2024-02-16T07:31:43;9.18;;;3.47;;
59756;SDS011;45631;51.962;5.974;2024-02-16T07:34:13;6.65;;;3.13;;
59756;SDS011;45631;51.962;5.974;2024-02-16T07:36:41;7.78;;;3.38;;
59756;SDS011;45631;51.962;5.974;2024-02-16T07:39:09;8.82;;;3.55;;
59756;SDS011;45631;51.962;5.974;2024-02-16T07:41:39;8.38;;;3.25;;
59756;SDS011;45631;51.962;5.974;2024-02-16T07:44:09;7.18;;;3.00;;
59756;SDS011;45631;51.962;5.974;2024-02-16T07:46:40;7.88;;;3.45;;
59756;SDS011;45631;51.962;5.974;2024-02-16T07:49:08;8.45;;;3.45;;
59756;SDS011;45631;51.962;5.974;2024-02-16T07:51:39;8.05;;;3.97;;
59756;SDS011;45631;51.962;5.974;2024-02-16T07:54:07;9.57;;;3.53;;
59756;SDS011;45631;51.962;5.974;2024-02-16T07:56:36;6.65;;;3.08;;
59756;SDS011;45631;51.962;5.974;2024-02-16T07:59:04;9.73;;;3.80;;
59756;SDS011;45631;51.962;5.974;2024-02-16T08:01:33;6.85;;;3.38;;
59756;SDS011;45631;51.962;5.974;2024-02-16T08:04:01;9.80;;;3.63;;
59756;SDS011;45631;51.962;5.974;2024-02-16T08:06:32;9.02;;;3.85;;
59756;SDS011;45631;51.962;5.974;2024-02-16T08:09:02;7.45;;;3.58;;
59756;SDS011;45631;51.962;5.974;2024-02-16T08:11:31;7.95;;;3.78;;
59756;SDS011;45631;51.962;5.974;2024-02-16T08:13:59;8.30;;;3.38;;
59756;SDS011;45631;51.962;5.974;2024-02-16T08:16:27;8.13;;;3.63;;
59756;SDS011;45631;51.962;5.974;2024-02-16T08:18:55;8.23;;;3.72;;
59756;SDS011;45631;51.962;5.974;2024-02-16T08:21:27;8.90;;;3.60;;
59756;SDS011;45631;51.962;5.974;2024-02-16T08:23:55;9.90;;;3.97;;
59756;SDS011;45631;51.962;5.974;2024-02-16T08:26:25;7.82;;;3.63;;
59756;SDS011;45631;51.962;5.974;2024-02-16T08:28:53;9.00;;;3.85;;
59756;SDS011;45631;51.962;5.974;2024-02-16T08:31:21;6.53;;;3.83;;
59756;SDS011;45631;51.962;5.974;2024-02-16T08:33:51;10.73;;;3.70;;
59756;SDS011;45631;51.962;5.974;2024-02-16T08:36:19;8.88;;;3.67;;
59756;SDS011;45631;51.962;5.974;2024-02-16T08:38:54;5.75;;;3.28;;
59756;SDS011;45631;51.962;5.974;2024-02-16T08:41:22;9.88;;;3.83;;
59756;SDS011;45631;51.962;5.974;2024-02-16T08:43:52;8.65;;;4.13;;
59756;SDS011;45631;51.962;5.974;2024-02-16T08:46:21;8.30;;;3.83;;
59756;SDS011;45631;51.962;5.974;2024-02-16T08:48:49;8.68;;;3.65;;
59756;SDS011;45631;51.962;5.974;2024-02-16T08:51:18;8.18;;;3.28;;
59756;SDS011;45631;51.962;5.974;2024-02-16T08:53:46;11.55;;;4.32;;
59756;SDS011;45631;51.962;5.974;2024-02-16T08:56:14;8.05;;;3.83;;
59756;SDS011;45631;51.962;5.974;2024-02-16T08:58:42;10.73;;;4.28;;
59756;SDS011;45631;51.962;5.974;2024-02-16T09:01:12;8.48;;;3.85;;
59756;SDS011;45631;51.962;5.974;2024-02-16T09:03:42;8.80;;;4.10;;
59756;SDS011;45631;51.962;5.974;2024-02-16T09:06:10;10.02;;;3.92;;
59756;SDS011;45631;51.962;5.974;2024-02-16T09:08:39;8.00;;;3.92;;
59756;SDS011;45631;51.962;5.974;2024-02-16T09:11:07;7.68;;;4.07;;
59756;SDS011;45631;51.962;5.974;2024-02-16T09:13:36;8.10;;;4.13;;
59756;SDS011;45631;51.962;5.974;2024-02-16T09:16:07;7.30;;;3.65;;
59756;SDS011;45631;51.962;5.974;2024-02-16T09:18:36;9.65;;;4.15;;
59756;SDS011;45631;51.962;5.974;2024-02-16T09:21:05;8.82;;;4.00;;
59756;SDS011;45631;51.962;5.974;2024-02-16T09:23:34;9.50;;;3.72;;
59756;SDS011;45631;51.962;5.974;2024-02-16T09:26:03;8.75;;;4.10;;
59756;SDS011;45631;51.962;5.974;2024-02-16T09:28:31;9.07;;;4.07;;
59756;SDS011;45631;51.962;5.974;2024-02-16T09:30:59;9.18;;;4.15;;
59756;SDS011;45631;51.962;5.974;2024-02-16T09:33:28;10.05;;;4.30;;
59756;SDS011;45631;51.962;5.974;2024-02-16T09:35:57;10.63;;;4.13;;
59756;SDS011;45631;51.962;5.974;2024-02-16T09:38:26;9.10;;;4.10;;
59756;SDS011;45631;51.962;5.974;2024-02-16T09:40:54;9.02;;;4.13;;
59756;SDS011;45631;51.962;5.974;2024-02-16T09:43:25;9.48;;;4.15;;
59756;SDS011;45631;51.962;5.974;2024-02-16T09:45:55;10.18;;;4.30;;
59756;SDS011;45631;51.962;5.974;2024-02-16T09:48:25;8.88;;;3.83;;
59756;SDS011;45631;51.962;5.974;2024-02-16T09:50:55;10.32;;;3.92;;
59756;SDS011;45631;51.962;5.974;2024-02-16T09:53:28;9.27;;;4.30;;
59756;SDS011;45631;51.962;5.974;2024-02-16T09:55:56;10.82;;;4.55;;
59756;SDS011;45631;51.962;5.974;2024-02-16T09:58:24;11.38;;;4.60;;
59756;SDS011;45631;51.962;5.974;2024-02-16T10:00:53;9.02;;;4.40;;
59756;SDS011;45631;51.962;5.974;2024-02-16T10:03:24;8.77;;;4.43;;
59756;SDS011;45631;51.962;5.974;2024-02-16T10:06:03;10.65;;;4.35;;
59756;SDS011;45631;51.962;5.974;2024-02-16T10:08:35;12.52;;;5.07;;
59756;SDS011;45631;51.962;5.974;2024-02-16T10:11:14;8.60;;;4.25;;
59756;SDS011;45631;51.962;5.974;2024-02-16T10:13:42;9.50;;;4.22;;
59756;SDS011;45631;51.962;5.974;2024-02-16T10:16:11;10.85;;;4.47;;
59756;SDS011;45631;51.962;5.974;2024-02-16T10:18:40;9.88;;;4.40;;
59756;SDS011;45631;51.962;5.974;2024-02-16T10:21:08;9.68;;;4.40;;
59756;SDS011;45631;51.962;5.974;2024-02-16T10:23:38;10.25;;;4.50;;
59756;SDS011;45631;51.962;5.974;2024-02-16T10:26:09;10.63;;;4.32;;
59756;SDS011;45631;51.962;5.974;2024-02-16T10:28:40;10.63;;;5.60;;
59756;SDS011;45631;51.962;5.974;2024-02-16T10:31:10;10.68;;;5.20;;
59756;SDS011;45631;51.962;5.974;2024-02-16T10:33:38;10.57;;;5.00;;
59756;SDS011;45631;51.962;5.974;2024-02-16T10:36:09;8.40;;;4.22;;
59756;SDS011;45631;51.962;5.974;2024-02-16T10:38:42;9.40;;;4.63;;
59756;SDS011;45631;51.962;5.974;2024-02-16T10:41:13;11.95;;;4.95;;
59756;SDS011;45631;51.962;5.974;2024-02-16T10:43:44;9.38;;;4.55;;
59756;SDS011;45631;51.962;5.974;2024-02-16T10:46:15;10.05;;;4.80;;
59756;SDS011;45631;51.962;5.974;2024-02-16T10:48:44;10.75;;;4.63;;
59756;SDS011;45631;51.962;5.974;2024-02-16T10:51:12;11.43;;;5.45;;
59756;SDS011;45631;51.962;5.974;2024-02-16T10:53:44;9.38;;;5.25;;
59756;SDS011;45631;51.962;5.974;2024-02-16T10:56:14;10.45;;;4.68;;
59756;SDS011;45631;51.962;5.974;2024-02-16T10:58:42;9.35;;;4.88;;
59756;SDS011;45631;51.962;5.974;2024-02-16T11:03:45;9.85;;;5.10;;
59756;SDS011;45631;51.962;5.974;2024-02-16T11:06:17;11.20;;;5.95;;
59756;SDS011;45631;51.962;5.974;2024-02-16T11:08:50;11.77;;;5.70;;
59756;SDS011;45631;51.962;5.974;2024-02-16T11:11:22;9.98;;;5.95;;
59756;SDS011;45631;51.962;5.974;2024-02-16T11:13:54;12.27;;;6.45;;
59756;SDS011;45631;51.962;5.974;2024-02-16T11:16:22;12.20;;;6.07;;
59756;SDS011;45631;51.962;5.974;2024-02-16T11:18:52;12.15;;;5.93;;
59756;SDS011;45631;51.962;5.974;2024-02-16T11:21:21;12.13;;;6.32;;
59756;SDS011;45631;51.962;5.974;2024-02-16T11:23:50;12.25;;;6.45;;
59756;SDS011;45631;51.962;5.974;2024-02-16T11:26:21;13.48;;;6.18;;
59756;SDS011;45631;51.962;5.974;2024-02-16T11:28:50;11.23;;;6.68;;
59756;SDS011;45631;51.962;5.974;2024-02-16T11:31:19;12.95;;;6.55;;
59756;SDS011;45631;51.962;5.974;2024-02-16T11:33:49;11.35;;;6.47;;
59756;SDS011;45631;51.962;5.974;2024-02-16T11:36:17;14.48;;;6.63;;
59756;SDS011;45631;51.962;5.974;2024-02-16T11:38:46;11.90;;;6.85;;
59756;SDS011;45631;51.962;5.974;2024-02-16T11:41:15;13.63;;;7.25;;
59756;SDS011;45631;51.962;5.974;2024-02-16T11:43:45;12.85;;;6.82;;
59756;SDS011;45631;51.962;5.974;2024-02-16T11:46:13;12.77;;;7.32;;
59756;SDS011;45631;51.962;5.974;2024-02-16T11:48:43;14.10;;;7.72;;
59756;SDS011;45631;51.962;5.974;2024-02-16T11:51:14;13.75;;;8.68;;
59756;SDS011;45631;51.962;5.974;2024-02-16T11:56:22;13.65;;;8.45;;
59756;SDS011;45631;51.962;5.974;2024-02-16T11:58:51;12.98;;;8.40;;
59756;SDS011;45631;51.962;5.974;2024-02-16T12:01:20;15.30;;;8.32;;
59756;SDS011;45631;51.962;5.974;2024-02-16T12:03:48;13.38;;;8.18;;
59756;SDS011;45631;51.962;5.974;2024-02-16T12:06:19;13.30;;;9.02;;
59756;SDS011;45631;51.962;5.974;2024-02-16T12:08:49;11.95;;;8.10;;
59756;SDS011;45631;51.962;5.974;2024-02-16T12:11:19;15.02;;;8.85;;
59756;SDS011;45631;51.962;5.974;2024-02-16T12:13:48;12.55;;;8.48;;
59756;SDS011;45631;51.962;5.974;2024-02-16T12:16:18;12.82;;;8.90;;
59756;SDS011;45631;51.962;5.974;2024-02-16T12:18:47;13.45;;;8.30;;
59756;SDS011;45631;51.962;5.974;2024-02-16T12:21:17;13.05;;;8.90;;
59756;SDS011;45631;51.962;5.974;2024-02-16T12:23:49;13.63;;;8.82;;
59756;SDS011;45631;51.962;5.974;2024-02-16T12:26:17;13.98;;;8.50;;
59756;SDS011;45631;51.962;5.974;2024-02-16T12:28:45;13.20;;;8.07;;
59756;SDS011;45631;51.962;5.974;2024-02-16T12:31:19;14.65;;;8.30;;
59756;SDS011;45631;51.962;5.974;2024-02-16T12:33:48;12.40;;;8.77;;
59756;SDS011;45631;51.962;5.974;2024-02-16T12:36:17;13.82;;;9.57;;
59756;SDS011;45631;51.962;5.974;2024-02-16T12:38:46;13.80;;;8.32;;
59756;SDS011;45631;51.962;5.974;2024-02-16T12:41:14;13.90;;;8.45;;
59756;SDS011;45631;51.962;5.974;2024-02-16T12:43:43;12.88;;;8.20;;
59756;SDS011;45631;51.962;5.974;2024-02-16T12:46:11;13.75;;;8.40;;
59756;SDS011;45631;51.962;5.974;2024-02-16T12:48:41;11.63;;;8.50;;
59756;SDS011;45631;51.962;5.974;2024-02-16T12:51:13;11.25;;;7.90;;
59756;SDS011;45631;51.962;5.974;2024-02-16T12:53:42;11.68;;;8.13;;
59756;SDS011;45631;51.962;5.974;2024-02-16T12:56:10;12.88;;;8.15;;
59756;SDS011;45631;51.962;5.974;2024-02-16T12:58:38;10.82;;;7.85;;
59756;SDS011;45631;51.962;5.974;2024-02-16T13:01:07;12.32;;;7.18;;
59756;SDS011;45631;51.962;5.974;2024-02-16T13:03:50;12.13;;;7.45;;
59756;SDS011;45631;51.962;5.974;2024-02-16T13:06:18;10.45;;;6.93;;
59756;SDS011;45631;51.962;5.974;2024-02-16T13:08:52;13.52;;;8.02;;
59756;SDS011;45631;51.962;5.974;2024-02-16T13:11:21;12.70;;;8.15;;
59756;SDS011;45631;51.962;5.974;2024-02-16T13:13:49;12.57;;;8.32;;
59756;SDS011;45631;51.962;5.974;2024-02-16T13:16:17;11.20;;;8.52;;
59756;SDS011;45631;51.962;5.974;2024-02-16T13:18:46;10.82;;;8.30;;
59756;SDS011;45631;51.962;5.974;2024-02-16T13:21:16;11.00;;;8.63;;
59756;SDS011;45631;51.962;5.974;2024-02-16T13:23:44;11.77;;;8.30;;
59756;SDS011;45631;51.962;5.974;2024-02-16T13:26:12;11.63;;;8.75;;
59756;SDS011;45631;51.962;5.974;2024-02-16T13:28:41;10.82;;;9.02;;
59756;SDS011;45631;51.962;5.974;2024-02-16T13:31:09;12.50;;;9.45;;
59756;SDS011;45631;51.962;5.974;2024-02-16T13:33:38;14.32;;;9.40;;
59756;SDS011;45631;51.962;5.974;2024-02-16T13:36:06;12.85;;;9.73;;
59756;SDS011;45631;51.962;5.974;2024-02-16T13:38:37;15.90;;;10.82;;
59756;SDS011;45631;51.962;5.974;2024-02-16T13:41:05;15.07;;;10.25;;
59756;SDS011;45631;51.962;5.974;2024-02-16T13:43:34;12.65;;;10.27;;
59756;SDS011;45631;51.962;5.974;2024-02-16T13:46:03;13.85;;;10.07;;
59756;SDS011;45631;51.962;5.974;2024-02-16T13:48:31;14.95;;;10.48;;
59756;SDS011;45631;51.962;5.974;2024-02-16T13:50:59;15.65;;;11.38;;
59756;SDS011;45631;51.962;5.974;2024-02-16T13:53:28;14.57;;;11.38;;
59756;SDS011;45631;51.962;5.974;2024-02-16T13:55:59;13.68;;;11.07;;
59756;SDS011;45631;51.962;5.974;2024-02-16T13:58:31;13.30;;;9.98;;
59756;SDS011;45631;51.962;5.974;2024-02-16T14:01:01;14.10;;;9.98;;
59756;SDS011;45631;51.962;5.974;2024-02-16T14:03:30;13.35;;;10.25;;
59756;SDS011;45631;51.962;5.974;2024-02-16T14:06:00;11.75;;;9.50;;
59756;SDS011;45631;51.962;5.974;2024-02-16T14:08:29;10.90;;;8.25;;
59756;SDS011;45631;51.962;5.974;2024-02-16T14:10:59;10.70;;;7.55;;
59756;SDS011;45631;51.962;5.974;2024-02-16T14:13:27;10.75;;;7.88;;
59756;SDS011;45631;51.962;5.974;2024-02-16T14:15:56;10.45;;;6.97;;
59756;SDS011;45631;51.962;5.974;2024-02-16T14:18:24;10.00;;;6.97;;
59756;SDS011;45631;51.962;5.974;2024-02-16T14:21:01;9.52;;;6.25;;
59756;SDS011;45631;51.962;5.974;2024-02-16T14:23:30;8.60;;;6.20;;
59756;SDS011;45631;51.962;5.974;2024-02-16T14:25:59;10.10;;;6.60;;
59756;SDS011;45631;51.962;5.974;2024-02-16T14:28:27;8.27;;;5.40;;
59756;SDS011;45631;51.962;5.974;2024-02-16T14:30:56;9.07;;;6.13;;
59756;SDS011;45631;51.962;5.974;2024-02-16T14:33:24;9.60;;;6.18;;
59756;SDS011;45631;51.962;5.974;2024-02-16T14:36:00;11.23;;;6.53;;
59756;SDS011;45631;51.962;5.974;2024-02-16T14:38:28;9.77;;;6.10;;
59756;SDS011;45631;51.962;5.974;2024-02-16T14:40:57;10.70;;;6.10;;
59756;SDS011;45631;51.962;5.974;2024-02-16T14:43:31;10.25;;;5.45;;
59756;SDS011;45631;51.962;5.974;2024-02-16T14:46:00;8.60;;;4.88;;
59756;SDS011;45631;51.962;5.974;2024-02-16T14:48:31;7.43;;;4.65;;
59756;SDS011;45631;51.962;5.974;2024-02-16T14:50:59;7.82;;;4.60;;
59756;SDS011;45631;51.962;5.974;2024-02-16T14:53:27;7.18;;;4.60;;
59756;SDS011;45631;51.962;5.974;2024-02-16T14:56:00;7.53;;;3.95;;
59756;SDS011;45631;51.962;5.974;2024-02-16T14:58:29;7.45;;;3.92;;
59756;SDS011;45631;51.962;5.974;2024-02-16T15:00:59;6.20;;;3.55;;